createdAt,value
2022-10-02T00:00:22.272Z,1014.41
2022-10-02T00:01:17.566Z,1014.45
2022-10-02T00:02:20.578Z,1014.45
2022-10-02T00:03:21.734Z,1014.41
2022-10-02T00:04:21.140Z,1014.41
2022-10-02T00:05:21.393Z,1014.40
2022-10-02T00:06:21.115Z,1014.41
2022-10-02T00:07:18.812Z,1014.43
2022-10-02T00:08:23.892Z,1014.50
2022-10-02T00:09:18.904Z,1014.47
2022-10-02T00:10:20.611Z,1014.45
2022-10-02T00:11:20.700Z,1014.44
2022-10-02T00:12:24.191Z,1014.46
2022-10-02T00:13:20.231Z,1014.48
2022-10-02T00:14:18.544Z,1014.43
2022-10-02T00:15:20.769Z,1014.50
2022-10-02T00:16:20.962Z,1014.51
2022-10-02T00:17:20.197Z,1014.51
2022-10-02T00:18:19.954Z,1014.43
2022-10-02T00:19:18.195Z,1014.45
2022-10-02T00:20:21.635Z,1014.45
2022-10-02T00:21:18.121Z,1014.48
2022-10-02T00:22:18.914Z,1014.48
2022-10-02T00:23:19.824Z,1014.50
2022-10-02T00:24:20.870Z,1014.46
2022-10-02T00:25:18.481Z,1014.48
2022-10-02T00:26:21.930Z,1014.56
2022-10-02T00:27:18.411Z,1014.53
2022-10-02T00:28:20.383Z,1014.54
2022-10-02T00:29:21.480Z,1014.56
2022-10-02T00:30:21.195Z,1014.53
2022-10-02T00:31:20.222Z,1014.58
2022-10-02T00:32:18.958Z,1014.59
2022-10-02T00:33:19.193Z,1014.57
2022-10-02T00:34:21.277Z,1014.62
2022-10-02T00:35:25.475Z,1014.61
2022-10-02T00:36:20.972Z,1014.62
2022-10-02T00:37:21.496Z,1014.57
2022-10-02T00:38:19.698Z,1014.56
2022-10-02T00:39:16.341Z,1014.55
2022-10-02T00:40:20.077Z,1014.53
2022-10-02T00:41:21.761Z,1014.55
2022-10-02T00:42:20.037Z,1014.53
2022-10-02T00:43:16.013Z,1014.56
2022-10-02T00:44:18.640Z,1014.57
2022-10-02T00:45:22.975Z,1014.56
2022-10-02T00:46:20.571Z,1014.59
2022-10-02T00:47:16.881Z,1014.62
2022-10-02T00:48:16.001Z,1014.59
2022-10-02T00:49:20.408Z,1014.62
2022-10-02T00:50:20.088Z,1014.66
2022-10-02T00:51:19.871Z,1014.57
2022-10-02T00:52:18.438Z,1014.61
2022-10-02T00:53:19.768Z,1014.62
2022-10-02T00:54:21.393Z,1014.63
2022-10-02T00:55:18.937Z,1014.62
2022-10-02T00:56:19.771Z,1014.60
2022-10-02T00:57:17.833Z,1014.60
2022-10-02T00:58:18.285Z,1014.49
2022-10-02T00:59:20.828Z,1014.50
2022-10-02T01:00:21.345Z,1014.51
2022-10-02T01:01:18.757Z,1014.59
2022-10-02T01:02:19.054Z,1014.62
2022-10-02T01:03:20.958Z,1014.52
2022-10-02T01:04:20.781Z,1014.58
2022-10-02T01:05:18.331Z,1014.63
2022-10-02T01:06:19.635Z,1014.63
2022-10-02T01:07:19.938Z,1014.67
2022-10-02T01:08:20.608Z,1014.66
2022-10-02T01:09:20.466Z,1014.67
2022-10-02T01:10:19.604Z,1014.69
2022-10-02T01:11:20.605Z,1014.66
2022-10-02T01:12:19.996Z,1014.69
2022-10-02T01:13:18.998Z,1014.68
2022-10-02T01:14:22.375Z,1014.69
2022-10-02T01:15:20.132Z,1014.72
2022-10-02T01:16:21.776Z,1014.70
2022-10-02T01:17:20.750Z,1014.72
2022-10-02T01:18:21.651Z,1014.68
2022-10-02T01:19:19.800Z,1014.66
2022-10-02T01:20:21.162Z,1014.70
2022-10-02T01:21:20.678Z,1014.68
2022-10-02T01:22:20.971Z,1014.67
2022-10-02T01:23:19.351Z,1014.65
2022-10-02T01:24:18.748Z,1014.69
2022-10-02T01:25:22.574Z,1014.69
2022-10-02T01:26:17.768Z,1014.72
2022-10-02T01:27:23.241Z,1014.69
2022-10-02T01:28:22.169Z,1014.74
2022-10-02T01:29:22.466Z,1014.73
2022-10-02T01:30:20.570Z,1014.75
2022-10-02T01:31:19.682Z,1014.80
2022-10-02T01:32:17.835Z,1014.77
2022-10-02T01:33:22.584Z,1014.83
2022-10-02T01:34:22.124Z,1014.82
2022-10-02T01:35:20.483Z,1014.82
2022-10-02T01:36:21.756Z,1014.81
2022-10-02T01:37:20.143Z,1014.85
2022-10-02T01:38:20.958Z,1014.82
2022-10-02T01:39:21.402Z,1014.85
2022-10-02T01:40:18.450Z,1014.83
2022-10-02T01:41:22.121Z,1014.82
2022-10-02T01:42:19.802Z,1014.82
2022-10-02T01:43:21.401Z,1014.80
2022-10-02T01:44:21.895Z,1014.80
2022-10-02T01:45:19.392Z,1014.82
2022-10-02T01:46:19.628Z,1014.84
2022-10-02T01:47:21.938Z,1014.88
2022-10-02T01:48:20.379Z,1014.87
2022-10-02T01:49:19.188Z,1014.85
2022-10-02T01:50:18.488Z,1014.89
2022-10-02T01:51:22.247Z,1014.86
2022-10-02T01:52:19.329Z,1014.83
2022-10-02T01:53:21.831Z,1014.84
2022-10-02T01:54:20.950Z,1014.85
2022-10-02T01:55:22.204Z,1014.83
2022-10-02T01:56:20.946Z,1014.83
2022-10-02T01:57:18.868Z,1014.78
2022-10-02T01:58:18.462Z,1014.84
2022-10-02T01:59:19.962Z,1014.82
2022-10-02T02:00:19.301Z,1014.79
2022-10-02T02:01:20.326Z,1014.82
2022-10-02T02:02:21.666Z,1014.83
2022-10-02T02:03:21.327Z,1014.85
2022-10-02T02:04:19.430Z,1014.78
2022-10-02T02:05:22.148Z,1014.81
2022-10-02T02:06:21.788Z,1014.77
2022-10-02T02:07:23.063Z,1014.69
2022-10-02T02:08:20.646Z,1014.72
2022-10-02T02:09:22.555Z,1014.69
2022-10-02T02:10:21.747Z,1014.71
2022-10-02T02:11:21.329Z,1014.69
2022-10-02T02:12:22.766Z,1014.69
2022-10-02T02:13:22.028Z,1014.66
2022-10-02T02:14:19.612Z,1014.76
2022-10-02T02:15:22.576Z,1014.72
2022-10-02T02:16:20.529Z,1014.77
2022-10-02T02:17:22.264Z,1014.71
2022-10-02T02:18:20.877Z,1014.71
2022-10-02T02:19:22.115Z,1014.71
2022-10-02T02:20:22.568Z,1014.69
2022-10-02T02:21:22.166Z,1014.70
2022-10-02T02:22:19.586Z,1014.69
2022-10-02T02:23:19.541Z,1014.70
2022-10-02T02:24:22.752Z,1014.73
2022-10-02T02:25:22.943Z,1014.69
2022-10-02T02:26:18.209Z,1014.75
2022-10-02T02:27:19.719Z,1014.75
2022-10-02T02:28:23.346Z,1014.78
2022-10-02T02:29:22.016Z,1014.72
2022-10-02T02:30:22.068Z,1014.78
2022-10-02T02:31:20.139Z,1014.79
2022-10-02T02:32:22.125Z,1014.77
2022-10-02T02:33:22.187Z,1014.81
2022-10-02T02:34:19.543Z,1014.79
2022-10-02T02:35:21.776Z,1014.75
2022-10-02T02:36:23.579Z,1014.83
2022-10-02T02:37:22.165Z,1014.83
2022-10-02T02:38:20.472Z,1014.83
2022-10-02T02:39:19.913Z,1014.85
2022-10-02T02:40:21.579Z,1014.82
2022-10-02T02:41:22.115Z,1014.87
2022-10-02T02:42:25.158Z,1014.90
2022-10-02T02:43:21.785Z,1014.90
2022-10-02T02:44:19.380Z,1014.92
2022-10-02T02:45:23.367Z,1014.88
2022-10-02T02:46:20.565Z,1014.86
2022-10-02T02:47:19.040Z,1014.87
2022-10-02T02:48:21.994Z,1014.85
2022-10-02T02:49:18.653Z,1014.76
2022-10-02T02:50:23.232Z,1014.80
2022-10-02T02:51:21.938Z,1014.75
2022-10-02T02:52:18.616Z,1014.78
2022-10-02T02:53:22.291Z,1014.78
2022-10-02T02:54:21.482Z,1014.84
2022-10-02T02:55:22.061Z,1014.80
2022-10-02T02:56:18.736Z,1014.83
2022-10-02T02:57:22.071Z,1014.83
2022-10-02T02:58:22.154Z,1014.81
2022-10-02T02:59:22.300Z,1014.79
2022-10-02T03:00:21.629Z,1014.80
2022-10-02T03:01:20.447Z,1014.81
2022-10-02T03:02:22.537Z,1014.80
2022-10-02T03:03:20.914Z,1014.79
2022-10-02T03:04:20.473Z,1014.80
2022-10-02T03:05:21.275Z,1014.80
2022-10-02T03:06:20.942Z,1014.82
2022-10-02T03:07:21.064Z,1014.84
2022-10-02T03:08:21.165Z,1014.83
2022-10-02T03:09:21.217Z,1014.88
2022-10-02T03:10:21.838Z,1014.81
2022-10-02T03:11:22.340Z,1014.78
2022-10-02T03:12:21.106Z,1014.78
2022-10-02T03:13:21.542Z,1014.76
2022-10-02T03:14:21.677Z,1014.80
2022-10-02T03:15:22.030Z,1014.74
2022-10-02T03:16:21.792Z,1014.71
2022-10-02T03:17:21.870Z,1014.72
2022-10-02T03:18:20.998Z,1014.75
2022-10-02T03:19:19.516Z,1014.69
2022-10-02T03:20:22.484Z,1014.70
2022-10-02T03:21:21.196Z,1014.72
2022-10-02T03:22:22.107Z,1014.72
2022-10-02T03:23:20.934Z,1014.76
2022-10-02T03:24:13.926Z,1014.74
2022-10-02T03:25:13.176Z,1014.75
2022-10-02T03:26:13.387Z,1014.80
2022-10-02T03:27:13.324Z,1014.77
2022-10-02T03:28:13.601Z,1014.78
2022-10-02T03:29:13.468Z,1014.78
2022-10-02T03:30:13.357Z,1014.74
2022-10-02T03:31:13.615Z,1014.77
2022-10-02T03:32:13.508Z,1014.71
2022-10-02T03:33:13.341Z,1014.76
2022-10-02T03:34:13.248Z,1014.73
2022-10-02T03:35:13.206Z,1014.77
2022-10-02T03:36:13.182Z,1014.75
2022-10-02T03:37:13.060Z,1014.79
2022-10-02T03:38:13.366Z,1014.77
2022-10-02T03:39:24.822Z,1014.74
2022-10-02T03:40:13.776Z,1014.72
2022-10-02T03:41:13.811Z,1014.75
2022-10-02T03:42:13.783Z,1014.76
2022-10-02T03:43:13.698Z,1014.78
2022-10-02T03:44:13.541Z,1014.75
2022-10-02T03:45:27.254Z,1014.73
2022-10-02T03:46:13.159Z,1014.72
2022-10-02T03:47:13.099Z,1014.74
2022-10-02T03:48:13.018Z,1014.72
2022-10-02T03:49:12.976Z,1014.74
2022-10-02T03:50:12.850Z,1014.70
2022-10-02T03:51:13.820Z,1014.71
2022-10-02T03:52:13.734Z,1014.69
2022-10-02T03:53:14.004Z,1014.64
2022-10-02T03:54:13.012Z,1014.65
2022-10-02T03:55:13.100Z,1014.69
2022-10-02T03:56:13.138Z,1014.75
2022-10-02T03:57:14.213Z,1014.71
2022-10-02T03:58:13.453Z,1014.70
2022-10-02T03:59:13.864Z,1014.62
2022-10-02T04:00:14.057Z,1014.64
2022-10-02T04:01:13.098Z,1014.63
2022-10-02T04:02:13.112Z,1014.64
2022-10-02T04:03:13.164Z,1014.65
2022-10-02T04:04:13.183Z,1014.64
2022-10-02T04:05:13.119Z,1014.64
2022-10-02T04:06:13.016Z,1014.65
2022-10-02T04:07:12.935Z,1014.66
2022-10-02T04:08:12.979Z,1014.64
2022-10-02T04:09:12.996Z,1014.66
2022-10-02T04:10:13.205Z,1014.66
2022-10-02T04:11:13.285Z,1014.68
2022-10-02T04:12:13.447Z,1014.67
2022-10-02T04:13:13.570Z,1014.71
2022-10-02T04:14:13.622Z,1014.69
2022-10-02T04:15:13.734Z,1014.72
2022-10-02T04:16:13.899Z,1014.68
2022-10-02T04:17:12.946Z,1014.67
2022-10-02T04:18:13.071Z,1014.72
2022-10-02T04:19:13.237Z,1014.70
2022-10-02T04:20:13.257Z,1014.73
2022-10-02T04:21:18.403Z,1014.73
2022-10-02T04:22:13.473Z,1014.69
2022-10-02T04:23:13.427Z,1014.71
2022-10-02T04:24:13.308Z,1014.72
2022-10-02T04:25:13.200Z,1014.75
2022-10-02T04:26:13.353Z,1014.75
2022-10-02T04:27:13.244Z,1014.74
2022-10-02T04:28:13.624Z,1014.74
2022-10-02T04:29:13.622Z,1014.70
2022-10-02T04:30:13.649Z,1014.71
2022-10-02T04:31:13.981Z,1014.76
2022-10-02T04:32:12.873Z,1014.73
2022-10-02T04:33:12.776Z,1014.71
2022-10-02T04:34:13.831Z,1014.69
2022-10-02T04:35:14.000Z,1014.75
2022-10-02T04:36:13.064Z,1014.73
2022-10-02T04:37:12.990Z,1014.73
2022-10-02T04:38:13.089Z,1014.78
2022-10-02T04:39:13.092Z,1014.76
2022-10-02T04:40:13.036Z,1014.77
2022-10-02T04:41:12.981Z,1014.81
2022-10-02T04:42:13.318Z,1014.76
2022-10-02T04:43:13.195Z,1014.80
2022-10-02T04:44:14.126Z,1014.83
2022-10-02T04:45:12.976Z,1014.80
2022-10-02T04:46:13.247Z,1014.86
2022-10-02T04:47:13.564Z,1014.89
2022-10-02T04:48:13.695Z,1014.84
2022-10-02T04:49:13.611Z,1014.93
2022-10-02T04:50:13.845Z,1014.89
2022-10-02T04:51:13.776Z,1014.83
2022-10-02T04:52:13.849Z,1014.91
2022-10-02T04:53:13.807Z,1014.93
2022-10-02T04:54:13.802Z,1014.86
2022-10-02T04:55:13.983Z,1014.90
2022-10-02T04:56:12.908Z,1014.92
2022-10-02T04:57:13.255Z,1014.94
2022-10-02T04:58:13.190Z,1014.96
2022-10-02T04:59:13.198Z,1014.95
2022-10-02T05:00:13.142Z,1014.89
2022-10-02T05:01:13.499Z,1014.91
2022-10-02T05:02:13.526Z,1014.95
2022-10-02T05:03:13.750Z,1014.92
2022-10-02T05:04:13.777Z,1014.90
2022-10-02T05:05:13.780Z,1014.85
2022-10-02T05:06:13.587Z,1014.84
2022-10-02T05:07:13.481Z,1014.85
2022-10-02T05:08:13.898Z,1014.81
2022-10-02T05:09:12.928Z,1014.86
2022-10-02T05:10:12.889Z,1014.80
2022-10-02T05:11:13.313Z,1014.87
2022-10-02T05:12:13.592Z,1014.83
2022-10-02T05:13:13.629Z,1014.81
2022-10-02T05:14:14.468Z,1014.83
2022-10-02T05:15:13.495Z,1014.86
2022-10-02T05:16:13.532Z,1014.84
2022-10-02T05:17:14.093Z,1014.85
2022-10-02T05:18:17.751Z,1014.84
2022-10-02T05:19:13.052Z,1014.86
2022-10-02T05:20:12.904Z,1014.84
2022-10-02T05:21:12.891Z,1014.84
2022-10-02T05:22:13.876Z,1014.82
2022-10-02T05:23:13.754Z,1014.85
2022-10-02T05:24:14.085Z,1014.92
2022-10-02T05:25:13.389Z,1014.94
2022-10-02T05:26:14.512Z,1014.98
2022-10-02T05:27:13.835Z,1015.02
2022-10-02T05:28:13.981Z,1015.03
2022-10-02T05:29:14.045Z,1015.06
2022-10-02T05:30:13.231Z,1015.11
2022-10-02T05:31:13.314Z,1015.10
2022-10-02T05:32:13.245Z,1015.11
2022-10-02T05:33:13.508Z,1015.10
2022-10-02T05:34:13.294Z,1015.11
2022-10-02T05:35:13.537Z,1015.15
2022-10-02T05:36:13.389Z,1015.17
2022-10-02T05:37:13.307Z,1015.22
2022-10-02T05:38:13.716Z,1015.21
2022-10-02T05:39:13.651Z,1015.20
2022-10-02T05:40:13.544Z,1015.23
2022-10-02T05:41:13.549Z,1015.21
2022-10-02T05:42:13.629Z,1015.17
2022-10-02T05:43:13.907Z,1015.16
2022-10-02T05:44:12.782Z,1015.18
2022-10-02T05:45:13.847Z,1015.18
2022-10-02T05:46:13.741Z,1015.17
2022-10-02T05:47:13.755Z,1015.19
2022-10-02T05:48:13.754Z,1015.15
2022-10-02T05:49:13.757Z,1015.14
2022-10-02T05:50:13.754Z,1015.13
2022-10-02T05:51:13.704Z,1015.12
2022-10-02T05:52:13.572Z,1015.11
2022-10-02T05:53:13.422Z,1015.11
2022-10-02T05:54:13.328Z,1015.08
2022-10-02T05:55:13.341Z,1015.11
2022-10-02T05:56:13.286Z,1015.09
2022-10-02T05:57:13.321Z,1015.13
2022-10-02T05:58:13.658Z,1015.12
2022-10-02T05:59:13.727Z,1015.13
2022-10-02T06:00:13.921Z,1015.15
2022-10-02T06:01:13.008Z,1015.12
2022-10-02T06:02:13.111Z,1015.15
2022-10-02T06:03:13.184Z,1015.18
2022-10-02T06:04:13.170Z,1015.16
2022-10-02T06:05:13.291Z,1015.18
2022-10-02T06:06:13.318Z,1015.23
2022-10-02T06:07:13.311Z,1015.24
2022-10-02T06:08:13.213Z,1015.23
2022-10-02T06:09:17.678Z,1015.23
2022-10-02T06:10:13.180Z,1015.23
2022-10-02T06:11:13.098Z,1015.25
2022-10-02T06:12:12.934Z,1015.20
2022-10-02T06:13:12.810Z,1015.22
2022-10-02T06:14:13.887Z,1015.21
2022-10-02T06:15:13.930Z,1015.30
2022-10-02T06:16:17.958Z,1015.29
2022-10-02T06:17:12.923Z,1015.38
2022-10-02T06:18:13.140Z,1015.35
2022-10-02T06:19:13.512Z,1015.41
2022-10-02T06:20:13.724Z,1015.41
2022-10-02T06:21:13.895Z,1015.40
2022-10-02T06:22:13.210Z,1015.43
2022-10-02T06:23:13.323Z,1015.49
2022-10-02T06:24:13.350Z,1015.50
2022-10-02T06:25:13.355Z,1015.51
2022-10-02T06:26:13.304Z,1015.52
2022-10-02T06:27:13.194Z,1015.49
2022-10-02T06:28:13.398Z,1015.55
2022-10-02T06:29:17.532Z,1015.54
2022-10-02T06:30:13.099Z,1015.57
2022-10-02T06:31:12.999Z,1015.55
2022-10-02T06:33:44.147Z,1015.59
2022-10-02T06:34:13.231Z,1015.62
2022-10-02T06:35:13.130Z,1015.57
2022-10-02T06:36:13.115Z,1015.61
2022-10-02T06:37:12.985Z,1015.61
2022-10-02T06:38:12.928Z,1015.62
2022-10-02T06:39:13.224Z,1015.68
2022-10-02T06:40:13.246Z,1015.62
2022-10-02T06:41:13.110Z,1015.62
2022-10-02T06:42:13.097Z,1015.61
2022-10-02T06:43:13.163Z,1015.62
2022-10-02T06:44:13.092Z,1015.67
2022-10-02T06:45:13.098Z,1015.68
2022-10-02T06:46:13.169Z,1015.66
2022-10-02T06:47:13.177Z,1015.72
2022-10-02T06:48:13.405Z,1015.78
2022-10-02T06:49:13.287Z,1015.76
2022-10-02T06:50:13.206Z,1015.81
2022-10-02T06:51:13.145Z,1015.84
2022-10-02T06:52:12.943Z,1015.82
2022-10-02T06:53:12.887Z,1015.81
2022-10-02T06:54:13.179Z,1015.80
2022-10-02T06:55:13.309Z,1015.76
2022-10-02T06:56:13.614Z,1015.71
2022-10-02T06:57:13.658Z,1015.70
2022-10-02T06:58:13.948Z,1015.68
2022-10-02T06:59:13.109Z,1015.68
2022-10-02T07:00:13.049Z,1015.71
2022-10-02T07:01:13.440Z,1015.70
2022-10-02T07:02:13.513Z,1015.75
2022-10-02T07:03:13.577Z,1015.78
2022-10-02T07:04:14.132Z,1015.84
2022-10-02T07:05:13.100Z,1015.86
2022-10-02T07:06:13.203Z,1015.89
2022-10-02T07:07:16.051Z,1015.89
2022-10-02T07:08:13.108Z,1015.94
2022-10-02T07:09:13.512Z,1015.96
2022-10-02T07:10:13.852Z,1015.93
2022-10-02T07:11:14.136Z,1015.97
2022-10-02T07:12:13.227Z,1015.93
2022-10-02T07:13:13.432Z,1015.97
2022-10-02T07:14:13.411Z,1015.95
2022-10-02T07:15:13.334Z,1015.97
2022-10-02T07:16:13.463Z,1015.94
2022-10-02T07:17:13.378Z,1015.92
2022-10-02T07:18:13.504Z,1015.90
2022-10-02T07:19:13.663Z,1015.92
2022-10-02T07:20:13.547Z,1015.92
2022-10-02T07:21:13.493Z,1015.95
2022-10-02T07:22:32.733Z,1015.95
2022-10-02T07:23:14.142Z,1015.93
2022-10-02T07:24:13.126Z,1015.94
2022-10-02T07:25:13.061Z,1015.93
2022-10-02T07:26:13.552Z,1015.96
2022-10-02T07:27:13.820Z,1016.00
2022-10-02T07:28:14.192Z,1015.92
2022-10-02T07:29:13.369Z,1015.89
2022-10-02T07:30:14.567Z,1015.93
2022-10-02T07:31:13.637Z,1015.98
2022-10-02T07:32:13.594Z,1015.96
2022-10-02T07:33:13.664Z,1015.98
2022-10-02T07:34:14.287Z,1015.95
2022-10-02T07:35:13.323Z,1016.03
2022-10-02T07:36:13.477Z,1016.02
2022-10-02T07:37:13.503Z,1016.01
2022-10-02T07:38:13.703Z,1016.08
2022-10-02T07:39:13.868Z,1016.10
2022-10-02T07:40:13.741Z,1016.10
2022-10-02T07:41:13.732Z,1016.15
2022-10-02T07:42:13.639Z,1016.09
2022-10-02T07:43:13.478Z,1016.17
2022-10-02T07:44:13.585Z,1016.20
2022-10-02T07:45:13.547Z,1016.18
2022-10-02T07:46:13.745Z,1016.23
2022-10-02T07:47:13.714Z,1016.24
2022-10-02T07:48:13.709Z,1016.26
2022-10-02T07:49:14.174Z,1016.29
2022-10-02T07:50:13.320Z,1016.28
2022-10-02T07:51:16.091Z,1016.29
2022-10-02T07:52:12.935Z,1016.29
2022-10-02T07:53:12.865Z,1016.27
2022-10-02T07:54:13.697Z,1016.30
2022-10-02T07:55:13.880Z,1016.34
2022-10-02T07:56:14.198Z,1016.39
2022-10-02T07:57:13.273Z,1016.37
2022-10-02T07:58:13.269Z,1016.36
2022-10-02T07:59:13.571Z,1016.35
2022-10-02T08:00:13.549Z,1016.33
2022-10-02T08:01:13.760Z,1016.36
2022-10-02T08:02:14.181Z,1016.35
2022-10-02T08:03:13.265Z,1016.36
2022-10-02T08:04:13.560Z,1016.36
2022-10-02T08:05:13.471Z,1016.39
2022-10-02T08:06:13.592Z,1016.37
2022-10-02T08:07:13.583Z,1016.35
2022-10-02T08:08:13.442Z,1016.37
2022-10-02T08:09:13.626Z,1016.39
2022-10-02T08:10:13.703Z,1016.39
2022-10-02T08:11:13.988Z,1016.43
2022-10-02T08:12:13.026Z,1016.39
2022-10-02T08:13:13.113Z,1016.43
2022-10-02T08:14:13.059Z,1016.42
2022-10-02T08:15:13.405Z,1016.37
2022-10-02T08:16:13.694Z,1016.40
2022-10-02T08:17:13.812Z,1016.37
2022-10-02T08:18:33.105Z,1016.37
2022-10-02T08:19:13.187Z,1016.40
2022-10-02T08:20:13.194Z,1016.39
2022-10-02T08:21:13.059Z,1016.38
2022-10-02T08:22:13.333Z,1016.41
2022-10-02T08:23:14.485Z,1016.51
2022-10-02T08:24:13.545Z,1016.51
2022-10-02T08:25:13.601Z,1016.52
2022-10-02T08:26:15.081Z,1016.56
2022-10-02T08:27:13.045Z,1016.50
2022-10-02T08:28:13.064Z,1016.52
2022-10-02T08:29:13.097Z,1016.53
2022-10-02T08:30:18.221Z,1016.52
2022-10-02T08:31:13.611Z,1016.54
2022-10-02T08:32:13.577Z,1016.51
2022-10-02T08:33:13.768Z,1016.51
2022-10-02T08:34:13.841Z,1016.50
2022-10-02T08:35:13.796Z,1016.51
2022-10-02T08:36:13.798Z,1016.47
2022-10-02T08:37:13.736Z,1016.51
2022-10-02T08:38:14.008Z,1016.44
2022-10-02T08:39:13.129Z,1016.53
2022-10-02T08:40:13.130Z,1016.51
2022-10-02T08:41:13.781Z,1016.49
2022-10-02T08:42:25.013Z,1016.51
2022-10-02T08:43:13.527Z,1016.51
2022-10-02T08:44:13.539Z,1016.50
2022-10-02T08:45:13.509Z,1016.50
2022-10-02T08:46:13.596Z,1016.51
2022-10-02T08:47:13.594Z,1016.50
2022-10-02T08:48:13.510Z,1016.54
2022-10-02T08:49:13.499Z,1016.56
2022-10-02T08:51:14.003Z,1016.55
2022-10-02T08:52:40.225Z,1016.59
2022-10-02T08:53:14.617Z,1016.53
2022-10-02T08:54:29.623Z,1016.56
2022-10-02T08:55:13.880Z,1016.58
2022-10-02T08:56:19.185Z,1016.51
2022-10-02T08:57:13.058Z,1016.51
2022-10-02T08:58:18.285Z,1016.57
2022-10-02T08:59:15.241Z,1016.56
2022-10-02T09:00:13.389Z,1016.57
2022-10-02T09:01:13.623Z,1016.55
2022-10-02T09:02:13.572Z,1016.55
2022-10-02T09:03:13.708Z,1016.59
2022-10-02T09:04:14.071Z,1016.57
2022-10-02T09:05:23.178Z,1016.59
2022-10-02T09:06:13.228Z,1016.59
2022-10-02T09:07:13.471Z,1016.60
2022-10-02T09:08:13.397Z,1016.63
2022-10-02T09:09:13.363Z,1016.63
2022-10-02T09:10:13.393Z,1016.61
2022-10-02T09:11:13.498Z,1016.60
2022-10-02T09:13:13.362Z,1016.62
2022-10-02T09:14:13.334Z,1016.62
2022-10-02T09:15:13.443Z,1016.66
2022-10-02T09:16:13.627Z,1016.67
2022-10-02T09:17:13.495Z,1016.65
2022-10-02T09:18:13.463Z,1016.68
2022-10-02T09:19:13.746Z,1016.71
2022-10-02T09:20:13.908Z,1016.72
2022-10-02T09:21:13.179Z,1016.72
2022-10-02T09:22:18.310Z,1016.67
2022-10-02T09:23:13.415Z,1016.70
2022-10-02T09:24:13.474Z,1016.70
2022-10-02T09:25:13.536Z,1016.68
2022-10-02T09:26:13.390Z,1016.71
2022-10-02T09:27:13.987Z,1016.67
2022-10-02T09:28:51.579Z,1016.70
2022-10-02T09:29:15.209Z,1016.66
2022-10-02T09:30:13.465Z,1016.67
2022-10-02T09:31:13.530Z,1016.64
2022-10-02T09:32:13.862Z,1016.71
2022-10-02T09:33:16.010Z,1016.68
2022-10-02T09:34:13.530Z,1016.75
2022-10-02T09:35:13.506Z,1016.74
2022-10-02T09:36:13.442Z,1016.75
2022-10-02T09:37:13.312Z,1016.72
2022-10-02T09:38:16.788Z,1016.78
2022-10-02T09:39:33.910Z,1016.78
2022-10-02T09:40:17.966Z,1016.79
2022-10-02T09:41:12.855Z,1016.82
2022-10-02T09:42:13.778Z,1016.79
2022-10-02T09:43:13.842Z,1016.81
2022-10-02T09:44:13.711Z,1016.75
2022-10-02T09:45:23.641Z,1016.76
2022-10-02T09:46:29.736Z,1016.78
2022-10-02T09:47:14.020Z,1016.76
2022-10-02T09:48:14.146Z,1016.79
2022-10-02T09:49:13.289Z,1016.80
2022-10-02T09:50:13.672Z,1016.80
2022-10-02T09:51:13.984Z,1016.80
2022-10-02T09:52:13.382Z,1016.82
2022-10-02T09:53:13.605Z,1016.79
2022-10-02T09:54:13.639Z,1016.79
2022-10-02T09:55:13.952Z,1016.77
2022-10-02T09:56:12.927Z,1016.81
2022-10-02T09:57:22.870Z,1016.80
2022-10-02T09:58:12.898Z,1016.80
2022-10-02T09:59:13.338Z,1016.83
2022-10-02T10:00:13.931Z,1016.75
2022-10-02T10:01:13.105Z,1016.79
2022-10-02T10:02:13.043Z,1016.82
2022-10-02T10:03:13.013Z,1016.81
2022-10-02T10:04:17.966Z,1016.82
2022-10-02T10:06:13.133Z,1016.77
2022-10-02T10:07:16.305Z,1016.84
2022-10-02T10:08:13.143Z,1016.85
2022-10-02T10:09:13.774Z,1016.85
2022-10-02T10:10:15.851Z,1016.83
2022-10-02T10:11:13.320Z,1016.85
2022-10-02T10:12:13.303Z,1016.90
2022-10-02T10:13:13.513Z,1016.86
2022-10-02T10:14:13.502Z,1016.85
2022-10-02T10:15:13.506Z,1016.90
2022-10-02T10:16:13.995Z,1016.81
2022-10-02T10:17:17.998Z,1016.87
2022-10-02T10:18:14.467Z,1016.87
2022-10-02T10:19:13.837Z,1016.90
2022-10-02T10:20:13.854Z,1016.89
2022-10-02T10:21:13.924Z,1016.87
2022-10-02T10:22:13.245Z,1016.90
2022-10-02T10:23:13.112Z,1016.87
2022-10-02T10:24:13.046Z,1016.87
2022-10-02T10:25:12.888Z,1016.87
2022-10-02T10:26:13.891Z,1016.90
2022-10-02T10:27:13.224Z,1016.91
2022-10-02T10:28:13.224Z,1016.95
2022-10-02T10:29:13.530Z,1016.95
2022-10-02T10:30:13.494Z,1016.94
2022-10-02T10:31:13.452Z,1017.02
2022-10-02T10:32:13.709Z,1017.03
2022-10-02T10:33:19.001Z,1017.01
2022-10-02T10:34:13.023Z,1017.07
2022-10-02T10:35:12.925Z,1017.05
2022-10-02T10:36:12.794Z,1017.05
2022-10-02T10:37:13.840Z,1017.11
2022-10-02T10:38:13.677Z,1017.12
2022-10-02T10:39:14.080Z,1017.15
2022-10-02T10:40:13.025Z,1017.12
2022-10-02T10:41:12.953Z,1017.12
2022-10-02T10:42:13.229Z,1017.13
2022-10-02T10:43:16.566Z,1017.11
2022-10-02T10:44:12.942Z,1017.14
2022-10-02T10:45:12.976Z,1017.14
2022-10-02T10:46:12.990Z,1017.19
2022-10-02T10:47:13.020Z,1017.18
2022-10-02T10:48:13.067Z,1017.23
2022-10-02T10:49:13.108Z,1017.23
2022-10-02T10:50:13.068Z,1017.21
2022-10-02T10:51:13.057Z,1017.24
2022-10-02T10:52:13.145Z,1017.28
2022-10-02T10:53:13.214Z,1017.28
2022-10-02T10:54:13.291Z,1017.30
2022-10-02T10:55:18.236Z,1017.29
2022-10-02T10:56:27.070Z,1017.28
2022-10-02T10:57:13.031Z,1017.41
2022-10-02T10:58:13.060Z,1017.37
2022-10-02T10:59:13.173Z,1017.36
2022-10-02T11:00:13.478Z,1017.34
2022-10-02T11:01:27.095Z,1017.37
2022-10-02T11:02:13.320Z,1017.37
2022-10-02T11:03:18.770Z,1017.42
2022-10-02T11:04:14.410Z,1017.41
2022-10-02T11:05:13.556Z,1017.37
2022-10-02T11:06:13.700Z,1017.39
2022-10-02T11:07:13.832Z,1017.40
2022-10-02T11:08:14.131Z,1017.35
2022-10-02T11:09:13.071Z,1017.35
2022-10-02T11:10:12.974Z,1017.38
2022-10-02T11:11:12.967Z,1017.42
2022-10-02T11:12:13.150Z,1017.37
2022-10-02T11:13:13.378Z,1017.44
2022-10-02T11:14:13.268Z,1017.43
2022-10-02T11:15:13.491Z,1017.44
2022-10-02T11:16:15.269Z,1017.47
2022-10-02T11:17:13.661Z,1017.51
2022-10-02T11:18:13.637Z,1017.50
2022-10-02T11:19:16.760Z,1017.51
2022-10-02T11:20:13.253Z,1017.53
2022-10-02T11:21:13.134Z,1017.55
2022-10-02T11:22:13.368Z,1017.54
2022-10-02T11:23:13.503Z,1017.56
2022-10-02T11:24:13.587Z,1017.61
2022-10-02T11:25:13.447Z,1017.59
2022-10-02T11:26:13.541Z,1017.57
2022-10-02T11:27:23.107Z,1017.65
2022-10-02T11:28:13.095Z,1017.64
2022-10-02T11:29:13.188Z,1017.61
2022-10-02T11:30:13.229Z,1017.58
2022-10-02T11:31:13.460Z,1017.58
2022-10-02T11:32:13.643Z,1017.56
2022-10-02T11:33:13.689Z,1017.57
2022-10-02T11:34:13.659Z,1017.61
2022-10-02T11:35:13.556Z,1017.60
2022-10-02T11:36:25.049Z,1017.63
2022-10-02T11:37:24.775Z,1017.67
2022-10-02T11:38:14.041Z,1017.69
2022-10-02T11:39:13.125Z,1017.72
2022-10-02T11:40:18.971Z,1017.65
2022-10-02T11:41:13.192Z,1017.79
2022-10-02T11:42:13.086Z,1017.74
2022-10-02T11:43:13.286Z,1017.70
2022-10-02T11:44:13.179Z,1017.72
2022-10-02T11:45:18.221Z,1017.71
2022-10-02T11:46:13.177Z,1017.75
2022-10-02T11:47:13.060Z,1017.73
2022-10-02T11:48:13.032Z,1017.75
2022-10-02T11:49:13.251Z,1017.70
2022-10-02T11:50:13.362Z,1017.66
2022-10-02T11:51:13.257Z,1017.72
2022-10-02T11:52:13.168Z,1017.72
2022-10-02T11:53:13.392Z,1017.75
2022-10-02T11:54:13.280Z,1017.72
2022-10-02T11:55:13.277Z,1017.68
2022-10-02T11:56:13.279Z,1017.73
2022-10-02T11:57:13.264Z,1017.70
2022-10-02T11:58:13.271Z,1017.67
2022-10-02T11:59:13.180Z,1017.76
2022-10-02T12:00:13.158Z,1017.72
2022-10-02T12:01:13.150Z,1017.70
2022-10-02T12:02:16.381Z,1017.68
2022-10-02T12:03:14.136Z,1017.69
2022-10-02T12:04:13.256Z,1017.70
2022-10-02T12:06:18.007Z,1017.75
2022-10-02T12:07:16.891Z,1017.75
2022-10-02T12:08:14.197Z,1017.80
2022-10-02T12:09:13.320Z,1017.75
2022-10-02T12:10:14.379Z,1017.77